createdAt,value
2018-05-29T00:01:07.836Z,1022.60
2018-05-29T00:02:35.495Z,1022.61
2018-05-29T00:04:02.518Z,1022.58
2018-05-29T00:05:30.145Z,1022.56
2018-05-29T00:06:57.460Z,1022.54
2018-05-29T00:08:24.960Z,1022.55
2018-05-29T00:09:52.333Z,1022.53
2018-05-29T00:11:19.379Z,1022.53
2018-05-29T00:12:46.917Z,1022.53
2018-05-29T00:14:14.567Z,1022.51
2018-05-29T00:15:42.038Z,1022.48
2018-05-29T00:17:09.555Z,1022.48
2018-05-29T00:18:36.918Z,1022.42
2018-05-29T00:20:04.343Z,1022.41
2018-05-29T00:21:31.659Z,1022.38
2018-05-29T00:22:59.320Z,1022.38
2018-05-29T00:24:26.335Z,1022.39
2018-05-29T00:25:53.336Z,1022.42
2018-05-29T00:27:20.432Z,1022.44
2018-05-29T00:28:47.859Z,1022.45
2018-05-29T00:30:15.084Z,1022.46
2018-05-29T00:31:42.641Z,1022.47
2018-05-29T00:33:10.197Z,1022.47
2018-05-29T00:34:37.695Z,1022.48
2018-05-29T00:36:05.114Z,1022.47
2018-05-29T00:37:32.260Z,1022.48
2018-05-29T00:38:59.731Z,1022.47
2018-05-29T00:40:27.138Z,1022.46
2018-05-29T00:41:54.212Z,1022.46
2018-05-29T00:43:21.178Z,1022.49
2018-05-29T00:44:48.467Z,1022.50
2018-05-29T00:46:15.279Z,1022.51
2018-05-29T00:47:42.714Z,1022.53
2018-05-29T00:49:09.796Z,1022.57
2018-05-29T00:50:37.228Z,1022.57
2018-05-29T00:52:04.546Z,1022.57
2018-05-29T00:53:32.063Z,1022.54
2018-05-29T00:54:59.465Z,1022.53
2018-05-29T00:56:26.572Z,1022.53
2018-05-29T00:57:53.573Z,1022.51
2018-05-29T00:59:20.356Z,1022.50
2018-05-29T01:00:47.746Z,1022.50
2018-05-29T01:02:15.179Z,1022.47
2018-05-29T01:03:42.506Z,1022.51
2018-05-29T01:05:10.176Z,1022.51
2018-05-29T01:06:37.618Z,1022.48
2018-05-29T01:08:05.151Z,1022.48
2018-05-29T01:09:32.579Z,1022.48
2018-05-29T01:10:59.526Z,1022.45
2018-05-29T01:12:26.978Z,1022.45
2018-05-29T01:13:54.304Z,1022.41
2018-05-29T01:15:21.097Z,1022.39
2018-05-29T01:16:47.886Z,1022.38
2018-05-29T01:18:15.482Z,1022.38
2018-05-29T01:19:42.544Z,1022.37
2018-05-29T01:21:10.058Z,1022.39
2018-05-29T01:22:36.827Z,1022.40
2018-05-29T01:24:04.319Z,1022.40
2018-05-29T01:25:31.917Z,1022.38
2018-05-29T01:26:59.269Z,1022.34
2018-05-29T01:28:26.597Z,1022.34
2018-05-29T01:29:54.187Z,1022.31
2018-05-29T01:31:21.694Z,1022.31
2018-05-29T01:32:49.180Z,1022.29
2018-05-29T01:34:16.605Z,1022.27
2018-05-29T01:35:43.911Z,1022.25
2018-05-29T01:37:11.147Z,1022.24
2018-05-29T01:38:38.477Z,1022.20
2018-05-29T01:40:05.917Z,1022.20
2018-05-29T01:41:33.421Z,1022.14
2018-05-29T01:42:59.945Z,1022.12
2018-05-29T01:44:27.477Z,1022.07
2018-05-29T01:45:55.122Z,1022.06
2018-05-29T01:47:22.257Z,1022.01
2018-05-29T01:48:49.400Z,1022.00
2018-05-29T01:50:16.976Z,1021.98
2018-05-29T01:51:44.392Z,1021.99
2018-05-29T01:53:11.884Z,1021.98
2018-05-29T01:54:39.463Z,1022.00
2018-05-29T01:56:06.791Z,1022.00
2018-05-29T01:57:33.746Z,1022.02
2018-05-29T01:59:01.133Z,1022.02
2018-05-29T02:00:28.575Z,1022.02
2018-05-29T02:01:55.674Z,1022.04
2018-05-29T02:03:23.068Z,1022.03
2018-05-29T02:04:50.486Z,1022.05
2018-05-29T02:06:17.507Z,1022.04
2018-05-29T02:07:44.778Z,1022.04
2018-05-29T02:09:12.073Z,1022.05
2018-05-29T02:10:39.701Z,1022.03
2018-05-29T02:12:07.086Z,1022.00
2018-05-29T02:13:34.600Z,1022.01
2018-05-29T02:15:02.076Z,1022.02
2018-05-29T02:16:29.499Z,1022.00
2018-05-29T02:17:56.782Z,1022.00
2018-05-29T02:19:23.888Z,1021.99
2018-05-29T02:20:51.443Z,1021.97
2018-05-29T02:22:18.705Z,1021.96
2018-05-29T02:23:45.968Z,1021.94
2018-05-29T02:25:13.612Z,1021.91
2018-05-29T02:26:40.928Z,1021.92
2018-05-29T02:28:07.753Z,1021.91
2018-05-29T02:29:34.928Z,1021.88
2018-05-29T02:31:02.514Z,1021.87
2018-05-29T02:32:30.075Z,1021.86
2018-05-29T02:33:57.365Z,1021.87
2018-05-29T02:35:24.667Z,1021.86
2018-05-29T02:36:51.928Z,1021.86
2018-05-29T02:38:19.591Z,1021.86
2018-05-29T02:39:46.549Z,1021.84
2018-05-29T02:41:14.186Z,1021.82
2018-05-29T02:42:41.743Z,1021.81
2018-05-29T02:44:08.941Z,1021.79
2018-05-29T02:45:36.261Z,1021.80
2018-05-29T02:47:03.268Z,1021.76
2018-05-29T02:48:30.224Z,1021.75
2018-05-29T02:49:57.031Z,1021.75
2018-05-29T02:51:24.501Z,1021.77
2018-05-29T02:52:51.832Z,1021.75
2018-05-29T02:54:18.648Z,1021.77
2018-05-29T02:55:46.260Z,1021.77
2018-05-29T02:57:13.885Z,1021.79
2018-05-29T02:58:41.184Z,1021.81
2018-05-29T03:00:08.482Z,1021.82
2018-05-29T03:01:35.924Z,1021.83
2018-05-29T03:03:03.546Z,1021.81
2018-05-29T03:04:30.894Z,1021.82
2018-05-29T03:05:58.111Z,1021.82
2018-05-29T03:07:25.606Z,1021.79
2018-05-29T03:08:53.016Z,1021.78
2018-05-29T03:10:19.586Z,1021.78
2018-05-29T03:11:46.552Z,1021.80
2018-05-29T03:13:14.027Z,1021.80
2018-05-29T03:14:41.470Z,1021.80
2018-05-29T03:16:09.015Z,1021.81
2018-05-29T03:17:36.522Z,1021.82
2018-05-29T03:19:03.938Z,1021.84
2018-05-29T03:20:31.593Z,1021.88
2018-05-29T03:21:59.011Z,1021.90
2018-05-29T03:23:26.645Z,1021.90
2018-05-29T03:24:54.133Z,1021.92
2018-05-29T03:26:20.781Z,1021.92
2018-05-29T03:27:48.183Z,1021.92
2018-05-29T03:29:15.685Z,1021.91
2018-05-29T03:30:42.670Z,1021.91
2018-05-29T03:32:09.717Z,1021.91
2018-05-29T03:33:37.180Z,1021.89
2018-05-29T03:35:04.548Z,1021.89
2018-05-29T03:36:31.717Z,1021.88
2018-05-29T03:37:59.043Z,1021.88
2018-05-29T03:39:26.654Z,1021.88
2018-05-29T03:40:54.188Z,1021.89
2018-05-29T03:42:21.605Z,1021.91
2018-05-29T03:43:48.885Z,1021.89
2018-05-29T03:45:15.656Z,1021.88
2018-05-29T03:46:43.008Z,1021.92
2018-05-29T03:48:10.436Z,1021.92
2018-05-29T03:49:37.514Z,1021.90
2018-05-29T03:51:04.823Z,1021.89
2018-05-29T03:52:32.438Z,1021.86
2018-05-29T03:54:00.168Z,1021.85
2018-05-29T03:55:27.381Z,1021.86
2018-05-29T03:56:54.872Z,1021.84
2018-05-29T03:58:22.383Z,1021.88
2018-05-29T03:59:49.006Z,1021.87
2018-05-29T04:01:16.482Z,1021.87
2018-05-29T04:02:43.809Z,1021.88
2018-05-29T04:04:11.103Z,1021.89
2018-05-29T04:05:38.679Z,1021.88
2018-05-29T04:07:06.032Z,1021.92
2018-05-29T04:08:33.123Z,1021.92
2018-05-29T04:10:00.699Z,1021.92
2018-05-29T04:11:27.618Z,1021.94
2018-05-29T04:12:55.059Z,1021.95
2018-05-29T04:14:22.167Z,1021.96
2018-05-29T04:15:49.598Z,1021.98
2018-05-29T04:17:16.460Z,1021.99
2018-05-29T04:18:43.856Z,1021.97
2018-05-29T04:20:11.323Z,1021.98
2018-05-29T04:21:38.803Z,1021.97
2018-05-29T04:23:06.249Z,1022.00
2018-05-29T04:24:33.705Z,1022.01
2018-05-29T04:26:01.065Z,1022.02
2018-05-29T04:27:28.792Z,1022.03
2018-05-29T04:28:56.193Z,1022.08
2018-05-29T04:30:23.030Z,1022.09
2018-05-29T04:31:50.878Z,1022.09
2018-05-29T04:33:17.927Z,1022.09
2018-05-29T04:34:45.372Z,1022.06
2018-05-29T04:36:12.217Z,1022.06
2018-05-29T04:37:39.644Z,1022.04
2018-05-29T04:39:07.208Z,1022.04
2018-05-29T04:40:34.274Z,1022.03
2018-05-29T04:42:01.269Z,1022.04
2018-05-29T04:43:28.448Z,1022.06
2018-05-29T04:44:56.000Z,1022.05
2018-05-29T04:46:23.263Z,1022.06
2018-05-29T04:47:50.326Z,1022.08
2018-05-29T04:49:17.267Z,1022.06
2018-05-29T04:50:44.643Z,1022.01
2018-05-29T04:52:12.222Z,1022.01
2018-05-29T04:53:39.158Z,1021.99
2018-05-29T04:55:06.697Z,1021.95
2018-05-29T04:56:34.084Z,1021.96
2018-05-29T04:58:01.186Z,1021.94
2018-05-29T04:59:28.538Z,1021.93
2018-05-29T05:00:55.836Z,1021.93
2018-05-29T05:02:23.366Z,1021.89
2018-05-29T05:03:50.834Z,1021.90
2018-05-29T05:05:18.382Z,1021.89
2018-05-29T05:06:46.033Z,1021.88
2018-05-29T05:08:13.033Z,1021.86
2018-05-29T05:09:40.221Z,1021.90
2018-05-29T05:11:07.755Z,1021.85
2018-05-29T05:12:35.275Z,1021.84
2018-05-29T05:14:02.654Z,1021.84
2018-05-29T05:15:29.904Z,1021.82
2018-05-29T05:16:57.461Z,1021.80
2018-05-29T05:18:24.578Z,1021.79
2018-05-29T05:19:51.645Z,1021.75
2018-05-29T05:21:19.330Z,1021.75
2018-05-29T05:22:46.806Z,1021.74
2018-05-29T05:24:14.402Z,1021.73
2018-05-29T05:25:41.884Z,1021.73
2018-05-29T05:27:09.364Z,1021.74
2018-05-29T05:28:37.026Z,1021.76
2018-05-29T05:30:04.443Z,1021.76
2018-05-29T05:31:31.558Z,1021.80
2018-05-29T05:32:59.052Z,1021.82
2018-05-29T05:34:26.293Z,1021.85
2018-05-29T05:35:53.751Z,1021.82
2018-05-29T05:37:21.513Z,1021.82
2018-05-29T05:38:48.724Z,1021.85
2018-05-29T05:40:16.390Z,1021.84
2018-05-29T05:41:43.637Z,1021.85
2018-05-29T05:43:11.299Z,1021.87
2018-05-29T05:44:39.063Z,1021.84
2018-05-29T05:46:06.258Z,1021.84
2018-05-29T05:47:33.664Z,1021.83
2018-05-29T05:49:01.107Z,1021.80
2018-05-29T05:50:28.709Z,1021.83
2018-05-29T05:51:56.016Z,1021.85
2018-05-29T05:53:23.594Z,1021.86
2018-05-29T05:54:51.018Z,1021.85
2018-05-29T05:56:18.311Z,1021.89
2018-05-29T05:57:45.986Z,1021.90
2018-05-29T05:59:13.567Z,1021.88
2018-05-29T06:00:41.075Z,1021.89
2018-05-29T06:02:08.561Z,1021.87
2018-05-29T06:03:36.160Z,1021.87
2018-05-29T06:05:03.834Z,1021.86
2018-05-29T06:06:31.105Z,1021.83
2018-05-29T06:07:58.483Z,1021.82
2018-05-29T06:09:25.786Z,1021.80
2018-05-29T06:10:52.961Z,1021.81
2018-05-29T06:12:20.503Z,1021.81
2018-05-29T06:13:48.101Z,1021.82
2018-05-29T06:15:15.722Z,1021.82
2018-05-29T06:16:43.252Z,1021.83
2018-05-29T06:18:10.766Z,1021.81
2018-05-29T06:19:38.369Z,1021.79
2018-05-29T06:21:05.855Z,1021.76
2018-05-29T06:22:33.204Z,1021.77
2018-05-29T06:24:00.819Z,1021.74
2018-05-29T06:25:28.475Z,1021.74
2018-05-29T06:26:56.037Z,1021.74
2018-05-29T06:28:23.712Z,1021.74
2018-05-29T06:29:51.403Z,1021.74
2018-05-29T06:31:19.172Z,1021.72
2018-05-29T06:32:46.588Z,1021.70
2018-05-29T06:34:13.973Z,1021.67
2018-05-29T06:35:41.535Z,1021.67
2018-05-29T06:37:09.054Z,1021.63
2018-05-29T06:38:36.546Z,1021.63
2018-05-29T06:40:04.057Z,1021.62
2018-05-29T06:41:31.646Z,1021.60
2018-05-29T06:42:59.246Z,1021.58
2018-05-29T06:44:26.965Z,1021.58
2018-05-29T06:45:54.540Z,1021.60
2018-05-29T06:47:22.167Z,1021.58
2018-05-29T06:48:49.529Z,1021.60
2018-05-29T06:50:17.115Z,1021.62
2018-05-29T06:51:44.417Z,1021.60
2018-05-29T06:53:12.068Z,1021.63
2018-05-29T06:54:39.731Z,1021.62
2018-05-29T06:56:07.001Z,1021.61
2018-05-29T06:57:34.415Z,1021.64
2018-05-29T06:59:01.965Z,1021.65
2018-05-29T07:00:29.269Z,1021.66
2018-05-29T07:01:56.559Z,1021.66
2018-05-29T07:03:24.046Z,1021.65
2018-05-29T07:04:51.754Z,1021.66
2018-05-29T07:06:19.396Z,1021.65
2018-05-29T07:07:47.034Z,1021.65
2018-05-29T07:09:14.332Z,1021.62
2018-05-29T07:10:41.450Z,1021.61
2018-05-29T07:12:09.036Z,1021.58
2018-05-29T07:13:36.687Z,1021.59
2018-05-29T07:15:03.908Z,1021.57
2018-05-29T07:16:31.620Z,1021.59
2018-05-29T07:17:59.291Z,1021.63
2018-05-29T07:19:26.969Z,1021.60
2018-05-29T07:20:54.386Z,1021.61
2018-05-29T07:22:22.054Z,1021.58
2018-05-29T07:23:49.614Z,1021.57
2018-05-29T07:25:17.320Z,1021.56
2018-05-29T07:26:44.988Z,1021.52
2018-05-29T07:28:12.660Z,1021.50
2018-05-29T07:29:40.275Z,1021.48
2018-05-29T07:31:07.541Z,1021.47
2018-05-29T07:32:35.164Z,1021.49
2018-05-29T07:34:02.524Z,1021.47
2018-05-29T07:35:30.105Z,1021.48
2018-05-29T07:36:57.640Z,1021.46
2018-05-29T07:38:24.988Z,1021.44
2018-05-29T07:39:52.384Z,1021.43
2018-05-29T07:41:20.015Z,1021.39
2018-05-29T07:42:47.649Z,1021.39
2018-05-29T07:44:14.888Z,1021.39
2018-05-29T07:45:42.360Z,1021.37
2018-05-29T07:47:09.841Z,1021.36
2018-05-29T07:48:37.548Z,1021.33
2018-05-29T07:50:05.063Z,1021.34
2018-05-29T07:51:32.229Z,1021.33
2018-05-29T07:52:59.973Z,1021.32
2018-05-29T07:54:27.600Z,1021.31
2018-05-29T07:55:55.124Z,1021.29
2018-05-29T07:57:22.412Z,1021.26
2018-05-29T07:58:49.911Z,1021.25
2018-05-29T08:00:17.419Z,1021.21
2018-05-29T08:01:44.954Z,1021.22
2018-05-29T08:03:12.708Z,1021.19
2018-05-29T08:04:40.388Z,1021.19
2018-05-29T08:06:08.317Z,1021.17
2018-05-29T08:07:35.934Z,1021.20
2018-05-29T08:09:03.636Z,1021.18
2018-05-29T08:10:31.052Z,1021.21
2018-05-29T08:11:58.693Z,1021.20
2018-05-29T08:13:26.116Z,1021.21
2018-05-29T08:14:53.196Z,1021.20
2018-05-29T08:16:20.883Z,1021.20
2018-05-29T08:17:48.311Z,1021.19
2018-05-29T08:19:15.628Z,1021.18
2018-05-29T08:20:43.301Z,1021.15
2018-05-29T08:22:11.230Z,1021.13
2018-05-29T08:23:38.787Z,1021.20
2018-05-29T08:25:06.452Z,1021.16
2018-05-29T08:26:34.023Z,1021.15
2018-05-29T08:28:01.650Z,1021.15
2018-05-29T08:29:29.219Z,1021.15
2018-05-29T08:30:56.926Z,1021.16
2018-05-29T08:32:24.106Z,1021.14
2018-05-29T08:33:51.662Z,1021.16
2018-05-29T08:35:19.422Z,1021.14
2018-05-29T08:36:47.126Z,1021.11
2018-05-29T08:38:14.594Z,1021.08
2018-05-29T08:39:42.328Z,1021.06
2018-05-29T08:41:10.064Z,1021.06
2018-05-29T08:42:37.818Z,1021.04
2018-05-29T08:44:05.379Z,1021.01
2018-05-29T08:45:32.373Z,1021.03
2018-05-29T08:46:59.904Z,1021.03
2018-05-29T08:48:27.416Z,1021.02
2018-05-29T08:49:54.821Z,1020.98
2018-05-29T08:51:22.323Z,1020.98
2018-05-29T08:52:49.979Z,1020.92
2018-05-29T08:54:17.510Z,1020.94
2018-05-29T08:55:45.213Z,1020.92
2018-05-29T08:57:12.841Z,1020.86
2018-05-29T08:58:40.552Z,1020.89
2018-05-29T09:00:08.336Z,1020.86
2018-05-29T09:01:35.987Z,1020.86
2018-05-29T09:03:03.254Z,1020.83
2018-05-29T09:04:31.315Z,1020.83
2018-05-29T09:05:58.965Z,1020.85
2018-05-29T09:07:26.513Z,1020.85
2018-05-29T09:08:53.738Z,1020.85
2018-05-29T09:10:21.307Z,1020.86
2018-05-29T09:11:48.922Z,1020.81
2018-05-29T09:13:16.613Z,1020.84
2018-05-29T09:14:44.164Z,1020.82
2018-05-29T09:16:11.936Z,1020.79
2018-05-29T09:17:39.551Z,1020.79
2018-05-29T09:19:07.426Z,1020.75
2018-05-29T09:20:34.873Z,1020.73
2018-05-29T09:22:02.630Z,1020.71
2018-05-29T09:23:30.217Z,1020.68
2018-05-29T09:24:57.642Z,1020.64
2018-05-29T09:26:25.262Z,1020.66
2018-05-29T09:27:52.882Z,1020.62
2018-05-29T09:29:20.523Z,1020.62
2018-05-29T09:30:48.227Z,1020.66
2018-05-29T09:32:15.963Z,1020.63
2018-05-29T09:33:43.700Z,1020.63
2018-05-29T09:35:11.199Z,1020.56
2018-05-29T09:36:38.917Z,1020.54
2018-05-29T09:38:06.611Z,1020.57
2018-05-29T09:39:34.397Z,1020.55
2018-05-29T09:41:02.037Z,1020.54
2018-05-29T09:42:29.498Z,1020.57
2018-05-29T09:43:56.912Z,1020.53
2018-05-29T09:45:24.357Z,1020.50
2018-05-29T09:46:52.207Z,1020.50
2018-05-29T09:48:19.449Z,1020.54
2018-05-29T09:49:47.175Z,1020.49
2018-05-29T09:51:14.684Z,1020.48
2018-05-29T09:52:42.370Z,1020.45
2018-05-29T09:54:10.045Z,1020.42
2018-05-29T09:55:37.708Z,1020.48
2018-05-29T09:57:05.211Z,1020.47
2018-05-29T09:58:32.931Z,1020.40
2018-05-29T10:00:00.246Z,1020.44
2018-05-29T10:01:27.918Z,1020.43
2018-05-29T10:02:55.382Z,1020.45
2018-05-29T10:04:22.607Z,1020.42
2018-05-29T10:05:50.080Z,1020.37
2018-05-29T10:07:17.708Z,1020.38
2018-05-29T10:08:45.328Z,1020.37
2018-05-29T10:10:13.007Z,1020.33
2018-05-29T10:11:40.555Z,1020.32
2018-05-29T10:13:08.221Z,1020.30
2018-05-29T10:14:35.916Z,1020.28
2018-05-29T10:16:03.187Z,1020.26
2018-05-29T10:17:30.784Z,1020.27
2018-05-29T10:18:58.437Z,1020.15
2018-05-29T10:20:25.870Z,1020.15
2018-05-29T10:21:53.443Z,1020.16
2018-05-29T10:23:21.105Z,1020.11
2018-05-29T10:24:48.786Z,1020.07
2018-05-29T10:26:16.460Z,1020.07
2018-05-29T10:27:44.046Z,1020.08
2018-05-29T10:29:11.866Z,1020.01
2018-05-29T10:30:39.348Z,1020.03
2018-05-29T10:32:07.002Z,1019.99
2018-05-29T10:33:34.674Z,1020.06
2018-05-29T10:35:02.150Z,1020.03
2018-05-29T10:36:29.861Z,1020.03
2018-05-29T10:37:57.312Z,1020.01
2018-05-29T10:39:25.024Z,1020.03
2018-05-29T10:40:52.617Z,1020.04
2018-05-29T10:42:20.321Z,1019.94
2018-05-29T10:43:47.955Z,1019.97
2018-05-29T10:45:15.514Z,1019.97
2018-05-29T10:46:43.212Z,1019.92
2018-05-29T10:48:10.978Z,1019.92
2018-05-29T10:49:38.654Z,1019.90
2018-05-29T10:51:06.140Z,1019.88
2018-05-29T10:52:33.933Z,1019.84
2018-05-29T10:54:01.639Z,1019.83
2018-05-29T10:55:29.234Z,1019.75
2018-05-29T10:56:57.061Z,1019.75
2018-05-29T10:58:24.490Z,1019.76
2018-05-29T10:59:52.187Z,1019.75
2018-05-29T11:01:19.768Z,1019.74
2018-05-29T11:02:47.469Z,1019.80
2018-05-29T11:04:15.255Z,1019.78
2018-05-29T11:05:43.032Z,1019.82
2018-05-29T11:07:10.691Z,1019.81
2018-05-29T11:08:38.367Z,1019.73
2018-05-29T11:10:06.020Z,1019.71
2018-05-29T11:11:33.715Z,1019.73
2018-05-29T11:13:01.306Z,1019.68
2018-05-29T11:14:28.854Z,1019.69
2018-05-29T11:15:56.515Z,1019.68
2018-05-29T11:17:23.904Z,1019.65
2018-05-29T11:18:50.875Z,1019.67
2018-05-29T11:20:18.712Z,1019.57
2018-05-29T11:21:45.955Z,1019.57
2018-05-29T11:23:13.735Z,1019.62
2018-05-29T11:24:41.393Z,1019.62
2018-05-29T11:26:09.238Z,1019.62
2018-05-29T11:27:36.826Z,1019.58
2018-05-29T11:29:04.757Z,1019.53
2018-05-29T11:30:32.491Z,1019.55
2018-05-29T11:32:00.050Z,1019.54
2018-05-29T11:33:27.159Z,1019.55
2018-05-29T11:34:54.728Z,1019.57
2018-05-29T11:36:22.284Z,1019.53
2018-05-29T11:37:50.086Z,1019.48
2018-05-29T11:39:17.615Z,1019.49
2018-05-29T11:40:45.507Z,1019.49
2018-05-29T11:42:13.259Z,1019.48
2018-05-29T11:43:40.862Z,1019.45
2018-05-29T11:45:08.623Z,1019.53
2018-05-29T11:46:36.365Z,1019.50
2018-05-29T11:48:04.062Z,1019.50
2018-05-29T11:49:31.822Z,1019.47
2018-05-29T11:50:59.247Z,1019.45
2018-05-29T11:52:26.954Z,1019.42
2018-05-29T11:53:54.557Z,1019.43
2018-05-29T11:55:22.252Z,1019.45
2018-05-29T11:56:49.893Z,1019.42
2018-05-29T11:58:17.691Z,1019.40
2018-05-29T11:59:45.162Z,1019.43
2018-05-29T12:01:12.987Z,1019.39
2018-05-29T12:02:40.366Z,1019.41
2018-05-29T12:04:08.096Z,1019.44
2018-05-29T12:05:35.854Z,1019.40
2018-05-29T12:07:03.615Z,1019.33
2018-05-29T12:08:31.385Z,1019.36
2018-05-29T12:09:58.889Z,1019.36
2018-05-29T12:11:26.264Z,1019.32
2018-05-29T12:12:53.963Z,1019.28
2018-05-29T12:14:21.569Z,1019.26
2018-05-29T12:15:48.701Z,1019.26
2018-05-29T12:17:16.554Z,1019.27
2018-05-29T12:18:43.909Z,1019.27
2018-05-29T12:20:11.643Z,1019.28
2018-05-29T12:21:39.355Z,1019.28
2018-05-29T12:23:07.158Z,1019.23
2018-05-29T12:24:34.217Z,1019.20
2018-05-29T12:26:01.845Z,1019.22
2018-05-29T12:27:29.265Z,1019.30
2018-05-29T12:28:56.857Z,1019.29
2018-05-29T12:30:24.035Z,1019.22
2018-05-29T12:31:51.864Z,1019.18
2018-05-29T12:33:19.543Z,1019.17
2018-05-29T12:34:46.716Z,1019.19
2018-05-29T12:36:14.400Z,1019.08
2018-05-29T12:37:42.120Z,1019.19
2018-05-29T12:39:09.777Z,1019.15
2018-05-29T12:40:37.546Z,1019.12
2018-05-29T12:42:04.315Z,1019.11
2018-05-29T12:43:31.560Z,1019.07
2018-05-29T12:44:59.081Z,1019.07
2018-05-29T12:46:26.950Z,1019.03
2018-05-29T12:47:54.324Z,1019.04
2018-05-29T12:49:22.082Z,1019.03
2018-05-29T12:50:49.806Z,1019.00
2018-05-29T12:52:16.811Z,1019.00
2018-05-29T12:53:44.494Z,1018.97
2018-05-29T12:55:12.153Z,1018.90
2018-05-29T12:56:39.933Z,1018.91
2018-05-29T12:58:07.552Z,1018.88
2018-05-29T12:59:35.335Z,1018.89
2018-05-29T13:01:02.295Z,1018.85
2018-05-29T13:02:29.646Z,1018.83
2018-05-29T13:03:57.282Z,1018.84
2018-05-29T13:05:24.992Z,1018.88
2018-05-29T13:06:52.540Z,1018.85
2018-05-29T13:08:20.099Z,1018.80
2018-05-29T13:09:47.700Z,1018.81
2018-05-29T13:11:15.398Z,1018.78
2018-05-29T13:12:43.191Z,1018.74
2018-05-29T13:14:10.912Z,1018.74
2018-05-29T13:15:38.610Z,1018.72
2018-05-29T13:17:06.359Z,1018.72
2018-05-29T13:18:34.040Z,1018.67
2018-05-29T13:20:01.631Z,1018.76
2018-05-29T13:21:28.818Z,1018.71
2018-05-29T13:22:56.052Z,1018.72
2018-05-29T13:24:23.575Z,1018.74
2018-05-29T13:25:51.299Z,1018.78
2018-05-29T13:27:18.829Z,1018.69
2018-05-29T13:28:46.481Z,1018.75
2018-05-29T13:30:14.101Z,1018.66
2018-05-29T13:31:41.810Z,1018.65
2018-05-29T13:33:08.903Z,1018.68
2018-05-29T13:34:36.521Z,1018.63
2018-05-29T13:36:04.316Z,1018.64
2018-05-29T13:37:31.972Z,1018.60
2018-05-29T13:38:59.365Z,1018.63
2018-05-29T13:40:26.745Z,1018.62
2018-05-29T13:41:54.281Z,1018.62
2018-05-29T13:43:22.037Z,1018.58
2018-05-29T13:44:49.737Z,1018.54
2018-05-29T13:46:17.157Z,1018.62
2018-05-29T13:47:44.821Z,1018.56
2018-05-29T13:49:12.495Z,1018.52
2018-05-29T13:50:40.038Z,1018.54
2018-05-29T13:52:07.744Z,1018.51
2018-05-29T13:53:35.458Z,1018.48
2018-05-29T13:55:02.805Z,1018.47
2018-05-29T13:56:29.950Z,1018.43
2018-05-29T13:57:57.748Z,1018.46
2018-05-29T13:59:24.920Z,1018.49
2018-05-29T14:00:52.540Z,1018.43
2018-05-29T14:02:20.314Z,1018.41
2018-05-29T14:03:47.740Z,1018.35
2018-05-29T14:05:14.863Z,1018.34
2018-05-29T14:06:42.562Z,1018.37
2018-05-29T14:08:10.226Z,1018.38
2018-05-29T14:09:37.972Z,1018.31
2018-05-29T14:11:05.224Z,1018.29
2018-05-29T14:12:33.037Z,1018.27
2018-05-29T14:14:00.583Z,1018.24
2018-05-29T14:15:28.172Z,1018.20
2018-05-29T14:16:55.547Z,1018.21
2018-05-29T14:18:23.049Z,1018.18
2018-05-29T14:19:50.166Z,1018.21
2018-05-29T14:21:18.017Z,1018.20
2018-05-29T14:22:45.595Z,1018.17
2018-05-29T14:24:13.371Z,1018.15
2018-05-29T14:25:40.985Z,1018.16
2018-05-29T14:27:08.067Z,1018.10
2018-05-29T14:28:35.713Z,1018.03
2018-05-29T14:30:03.075Z,1018.02
2018-05-29T14:31:30.367Z,1018.03
2018-05-29T14:32:58.018Z,1018.09
2018-05-29T14:34:25.728Z,1018.03
2018-05-29T14:35:53.385Z,1018.02
2018-05-29T14:37:20.656Z,1017.96
2018-05-29T14:38:48.284Z,1017.95
2018-05-29T14:40:15.834Z,1017.93
2018-05-29T14:41:43.709Z,1017.91
2018-05-29T14:43:10.925Z,1017.89
2018-05-29T14:44:38.691Z,1017.83
2018-05-29T14:46:06.410Z,1017.83
2018-05-29T14:47:33.785Z,1017.84
2018-05-29T14:49:01.466Z,1017.82
2018-05-29T14:50:28.816Z,1017.79
2018-05-29T14:51:56.485Z,1017.83
2018-05-29T14:53:24.238Z,1017.81
2018-05-29T14:54:51.357Z,1017.82
2018-05-29T14:56:18.689Z,1017.81
2018-05-29T14:57:46.184Z,1017.85
2018-05-29T14:59:13.982Z,1017.92
2018-05-29T15:00:41.587Z,1017.87
2018-05-29T15:02:09.120Z,1017.82
2018-05-29T15:03:36.429Z,1017.81
2018-05-29T15:05:04.212Z,1017.81
2018-05-29T15:06:31.753Z,1017.80
2018-05-29T15:07:59.242Z,1017.79
2018-05-29T15:09:26.580Z,1017.79
2018-05-29T15:10:54.628Z,1017.77
2018-05-29T15:12:22.340Z,1017.80
2018-05-29T15:13:49.992Z,1017.72
2018-05-29T15:15:17.679Z,1017.74
2018-05-29T15:16:45.429Z,1017.71
2018-05-29T15:18:13.079Z,1017.70
2018-05-29T15:19:36.950Z,1017.74
2018-05-29T15:21:07.635Z,1017.68
2018-05-29T15:22:35.350Z,1017.71
2018-05-29T15:24:03.008Z,1017.67
2018-05-29T15:25:30.537Z,1017.64
2018-05-29T15:26:58.203Z,1017.66
2018-05-29T15:28:25.717Z,1017.70
2018-05-29T15:29:53.347Z,1017.68
2018-05-29T15:31:21.052Z,1017.63
2018-05-29T15:32:48.822Z,1017.60
2018-05-29T15:34:16.489Z,1017.60
2018-05-29T15:35:44.073Z,1017.56
2018-05-29T15:37:11.018Z,1017.58
2018-05-29T15:38:38.687Z,1017.50
2018-05-29T15:40:05.938Z,1017.51
2018-05-29T15:41:33.573Z,1017.47
2018-05-29T15:43:01.218Z,1017.49
2018-05-29T15:44:29.064Z,1017.45
2018-05-29T15:45:56.769Z,1017.41
2018-05-29T15:47:24.086Z,1017.39
2018-05-29T15:48:51.808Z,1017.37
2018-05-29T15:50:19.483Z,1017.35
2018-05-29T15:51:47.262Z,1017.42
2018-05-29T15:53:14.756Z,1017.46
2018-05-29T15:54:42.357Z,1017.41
2018-05-29T15:56:09.610Z,1017.39
2018-05-29T15:57:36.854Z,1017.36
2018-05-29T15:59:04.360Z,1017.36
2018-05-29T16:00:32.068Z,1017.34
2018-05-29T16:01:59.562Z,1017.29
2018-05-29T16:03:26.478Z,1017.33
2018-05-29T16:04:54.103Z,1017.30
2018-05-29T16:06:21.879Z,1017.35
2018-05-29T16:07:49.370Z,1017.33
2018-05-29T16:09:17.141Z,1017.35
2018-05-29T16:10:44.529Z,1017.31
2018-05-29T16:12:12.279Z,1017.27
2018-05-29T16:13:39.849Z,1017.25
2018-05-29T16:15:07.378Z,1017.23
2018-05-29T16:16:35.068Z,1017.20
2018-05-29T16:18:02.457Z,1017.17
2018-05-29T16:19:30.257Z,1017.19
2018-05-29T16:20:57.449Z,1017.19
2018-05-29T16:22:24.760Z,1017.18
2018-05-29T16:23:52.002Z,1017.16
2018-05-29T16:25:18.915Z,1017.17
2018-05-29T16:26:46.255Z,1017.14
2018-05-29T16:28:13.923Z,1017.16
2018-05-29T16:29:41.453Z,1017.12
2018-05-29T16:31:09.147Z,1017.15
2018-05-29T16:32:36.889Z,1017.15
2018-05-29T16:34:04.638Z,1017.12
2018-05-29T16:35:31.994Z,1017.09
2018-05-29T16:36:59.464Z,1017.15
2018-05-29T16:38:27.228Z,1017.17
2018-05-29T16:39:54.801Z,1017.12
2018-05-29T16:41:22.590Z,1017.10
2018-05-29T16:42:50.298Z,1017.10
2018-05-29T16:44:18.048Z,1017.06
2018-05-29T16:45:45.628Z,1017.07
2018-05-29T16:47:13.344Z,1017.04
2018-05-29T16:48:41.080Z,1017.05
2018-05-29T16:50:08.223Z,1017.05
2018-05-29T16:51:35.884Z,1017.07
2018-05-29T16:53:03.427Z,1017.06
2018-05-29T16:54:31.160Z,1017.07
2018-05-29T16:55:58.610Z,1017.09
2018-05-29T16:57:26.226Z,1017.14
2018-05-29T16:58:53.814Z,1017.11
2018-05-29T17:00:21.430Z,1017.13
2018-05-29T17:01:49.163Z,1017.13
2018-05-29T17:03:16.854Z,1017.16
2018-05-29T17:04:44.546Z,1017.14
2018-05-29T17:06:12.164Z,1017.19
2018-05-29T17:07:39.772Z,1017.17
2018-05-29T17:09:07.311Z,1017.22
2018-05-29T17:10:34.923Z,1017.23
2018-05-29T17:12:02.532Z,1017.26
2018-05-29T17:13:30.280Z,1017.29
2018-05-29T17:14:57.574Z,1017.32
2018-05-29T17:16:25.284Z,1017.33
2018-05-29T17:17:52.928Z,1017.36
2018-05-29T17:19:20.510Z,1017.40
2018-05-29T17:20:48.200Z,1017.44
2018-05-29T17:22:15.750Z,1017.47
2018-05-29T17:23:43.433Z,1017.47
2018-05-29T17:25:11.019Z,1017.47
2018-05-29T17:26:38.715Z,1017.47
2018-05-29T17:28:06.182Z,1017.47
2018-05-29T17:29:33.842Z,1017.50
2018-05-29T17:31:01.513Z,1017.49
2018-05-29T17:32:29.055Z,1017.49
2018-05-29T17:33:56.628Z,1017.51
2018-05-29T17:35:23.915Z,1017.54
2018-05-29T17:36:51.382Z,1017.52
2018-05-29T17:38:18.886Z,1017.53